createdAt,value
2022-12-19T00:02:36.153Z,10.30
2022-12-19T00:07:57.145Z,7.75
2022-12-19T00:13:19.584Z,8.20
2022-12-19T00:18:41.730Z,8.23
2022-12-19T00:24:13.138Z,8.98
2022-12-19T00:29:41.648Z,9.95
2022-12-19T00:35:01.928Z,9.13
2022-12-19T00:40:22.442Z,7.57
2022-12-19T00:45:44.908Z,7.15
2022-12-19T00:51:12.679Z,8.93
2022-12-19T00:56:37.382Z,8.70
2022-12-19T01:02:00.515Z,8.45
2022-12-19T01:07:23.998Z,8.00
2022-12-19T01:12:45.860Z,7.43
2022-12-19T01:18:10.189Z,6.57
2022-12-19T01:23:30.812Z,8.32
2022-12-19T01:28:51.152Z,7.10
2022-12-19T01:34:12.014Z,8.85
2022-12-19T01:39:32.482Z,8.95
2022-12-19T01:45:15.069Z,7.38
2022-12-19T01:51:01.635Z,9.25
2022-12-19T01:56:28.706Z,7.00
2022-12-19T02:01:54.815Z,7.18
2022-12-19T02:07:18.542Z,7.95
2022-12-19T02:12:42.775Z,8.07
2022-12-19T02:18:43.287Z,8.82
2022-12-19T02:24:25.576Z,7.18
2022-12-19T02:29:58.539Z,8.02
2022-12-19T02:35:44.064Z,8.25
2022-12-19T02:41:14.989Z,7.07
2022-12-19T02:46:37.529Z,10.05
2022-12-19T02:51:58.308Z,7.30
2022-12-19T02:57:23.978Z,7.90
2022-12-19T03:03:05.929Z,9.25
2022-12-19T03:08:38.095Z,8.45
2022-12-19T03:14:04.503Z,9.77
2022-12-19T03:19:25.120Z,8.65
2022-12-19T03:24:45.837Z,10.65
2022-12-19T03:30:10.308Z,9.05
2022-12-19T03:35:35.420Z,9.38
2022-12-19T03:40:57.508Z,9.07
2022-12-19T03:46:26.048Z,10.25
2022-12-19T03:51:59.191Z,8.80
2022-12-19T03:57:28.912Z,9.27
2022-12-19T04:02:53.063Z,8.30
2022-12-19T04:08:14.355Z,9.18
2022-12-19T04:13:44.776Z,10.38
2022-12-19T04:19:14.748Z,11.18
2022-12-19T04:24:40.593Z,10.57
2022-12-19T04:30:02.227Z,10.95
2022-12-19T04:35:23.064Z,9.38
2022-12-19T04:40:44.176Z,9.45
2022-12-19T04:46:04.576Z,10.32
2022-12-19T04:51:25.291Z,12.23
2022-12-19T04:56:45.501Z,9.80
2022-12-19T05:02:06.328Z,12.00
2022-12-19T05:07:26.823Z,10.07
2022-12-19T05:12:47.045Z,11.63
2022-12-19T05:18:07.802Z,13.68
2022-12-19T05:23:28.741Z,12.40
2022-12-19T05:28:49.901Z,13.02
2022-12-19T05:34:10.979Z,9.63
2022-12-19T05:39:31.703Z,9.48
2022-12-19T05:44:52.095Z,13.05
2022-12-19T05:50:17.076Z,13.80
2022-12-19T05:55:44.934Z,10.00
2022-12-19T06:01:11.786Z,13.10
2022-12-19T06:06:32.349Z,15.35
2022-12-19T06:11:52.793Z,14.23
2022-12-19T06:17:13.273Z,15.38
2022-12-19T06:22:34.367Z,13.77
2022-12-19T06:27:54.894Z,13.50
2022-12-19T06:33:15.465Z,14.27
2022-12-19T06:38:35.951Z,15.57
2022-12-19T06:43:58.762Z,15.20
2022-12-19T06:49:19.683Z,17.67
2022-12-19T06:54:40.330Z,14.52
2022-12-19T07:00:01.218Z,19.80
2022-12-19T07:05:22.047Z,15.35
2022-12-19T07:10:42.775Z,13.95
2022-12-19T07:16:05.154Z,15.82
2022-12-19T07:21:25.914Z,14.82
2022-12-19T07:26:47.494Z,18.23
2022-12-19T07:32:07.765Z,18.25
2022-12-19T07:37:28.449Z,18.92
2022-12-19T07:42:49.143Z,16.20
2022-12-19T07:48:10.257Z,16.85
2022-12-19T07:53:31.281Z,16.45
2022-12-19T07:58:52.329Z,17.20
2022-12-19T08:04:13.355Z,15.75
2022-12-19T08:09:33.732Z,14.20
2022-12-19T08:14:57.166Z,13.75
2022-12-19T08:20:17.904Z,16.10
2022-12-19T08:25:38.799Z,18.30
2022-12-19T08:31:20.248Z,15.48
2022-12-19T08:36:40.879Z,16.77
2022-12-19T08:42:01.483Z,16.77
2022-12-19T08:47:21.784Z,15.65
2022-12-19T08:52:42.481Z,14.60
2022-12-19T08:58:03.038Z,19.88
2022-12-19T09:03:24.020Z,16.65
2022-12-19T09:08:46.858Z,16.95
2022-12-19T09:14:07.829Z,15.13
2022-12-19T09:19:28.683Z,16.42
2022-12-19T09:24:49.654Z,18.10
2022-12-19T09:30:12.706Z,17.35
2022-12-19T09:35:33.265Z,16.40
2022-12-19T09:40:57.918Z,16.45
2022-12-19T09:46:20.587Z,17.27
2022-12-19T09:51:49.278Z,16.00
2022-12-19T09:57:17.816Z,16.15
2022-12-19T10:02:50.779Z,14.68
2022-12-19T10:08:18.648Z,13.38
2022-12-19T10:13:51.528Z,14.65
2022-12-19T10:19:27.535Z,13.70
2022-12-19T10:25:15.957Z,15.07
2022-12-19T10:30:44.775Z,11.55
2022-12-19T10:36:10.777Z,12.75
2022-12-19T10:41:32.764Z,14.18
2022-12-19T10:46:55.097Z,13.20
2022-12-19T10:52:16.138Z,12.98
2022-12-19T10:57:36.801Z,12.68
2022-12-19T11:03:13.695Z,13.00
2022-12-19T11:08:39.660Z,13.30
2022-12-19T11:18:54.283Z,13.13
2022-12-19T11:29:27.583Z,11.93
2022-12-19T11:30:08.657Z,12.25
2022-12-19T11:37:16.306Z,11.65
2022-12-19T11:43:10.915Z,11.25
2022-12-19T11:48:41.979Z,11.55
2022-12-19T11:54:22.217Z,12.75
2022-12-19T11:59:42.793Z,13.05
2022-12-19T12:05:33.408Z,11.05
2022-12-19T12:17:03.679Z,14.30
2022-12-19T12:31:00.949Z,12.80
2022-12-19T12:31:46.583Z,11.45
2022-12-19T12:32:02.752Z,12.95
2022-12-19T12:41:06.734Z,9.25
2022-12-19T12:46:34.849Z,8.65
2022-12-19T12:51:55.997Z,7.53
2022-12-19T12:57:20.616Z,9.15
2022-12-19T13:02:46.482Z,8.93
2022-12-19T13:08:45.368Z,14.45
2022-12-19T13:14:34.428Z,16.23
2022-12-19T13:19:58.123Z,18.35
2022-12-19T13:25:27.315Z,16.13
2022-12-19T13:31:19.771Z,17.13
2022-12-19T13:39:51.157Z,16.60
2022-12-19T13:42:55.519Z,14.85
2022-12-19T13:48:40.317Z,16.23
2022-12-19T13:54:01.210Z,13.95
2022-12-19T13:59:24.962Z,17.27
2022-12-19T14:04:45.822Z,17.48
2022-12-19T14:11:37.744Z,15.02
2022-12-19T14:16:00.558Z,14.60
2022-12-19T14:22:08.919Z,14.07
2022-12-19T14:28:20.372Z,15.70
2022-12-19T14:33:39.297Z,14.93
2022-12-19T14:39:24.703Z,14.93
2022-12-19T14:52:11.542Z,13.07
2022-12-19T14:54:23.273Z,14.48
2022-12-19T14:56:52.075Z,13.32
2022-12-19T15:02:05.739Z,13.25
2022-12-19T15:07:31.873Z,14.82
2022-12-19T15:14:50.872Z,17.55
2022-12-19T15:19:01.881Z,15.88
2022-12-19T15:24:22.348Z,17.02
2022-12-19T15:29:44.262Z,16.42
2022-12-19T15:35:17.305Z,16.40
2022-12-19T15:40:40.502Z,17.10
2022-12-19T15:46:01.364Z,17.50
2022-12-19T15:51:22.034Z,20.50
2022-12-19T15:56:46.725Z,17.02
2022-12-19T16:02:20.247Z,16.17
2022-12-19T16:07:40.793Z,16.40
2022-12-19T16:13:01.601Z,17.67
2022-12-19T16:18:22.212Z,14.40
2022-12-19T16:23:43.051Z,19.13
2022-12-19T16:29:04.850Z,16.40
2022-12-19T16:34:25.521Z,19.05
2022-12-19T16:39:46.146Z,17.52
2022-12-19T16:45:23.516Z,16.42
2022-12-19T16:50:44.355Z,16.13
2022-12-19T16:56:20.810Z,17.02
2022-12-19T17:01:44.005Z,14.30
2022-12-19T17:07:10.125Z,17.05
2022-12-19T17:12:30.612Z,14.68
2022-12-19T17:17:53.107Z,13.45
2022-12-19T17:23:22.471Z,15.50
2022-12-19T17:28:43.020Z,16.88
2022-12-19T17:34:06.465Z,16.98
2022-12-19T17:39:29.232Z,15.02
2022-12-19T17:44:50.274Z,11.80
2022-12-19T17:50:23.653Z,13.82
2022-12-19T17:55:44.194Z,11.68
2022-12-19T18:01:04.514Z,13.40
2022-12-19T18:06:25.255Z,13.23
2022-12-19T18:11:47.449Z,11.30
2022-12-19T18:17:11.770Z,12.70
2022-12-19T18:22:32.234Z,13.07
2022-12-19T18:27:53.155Z,11.35
2022-12-19T18:33:21.355Z,13.55
2022-12-19T18:38:42.272Z,14.68
2022-12-19T18:44:03.023Z,14.55
2022-12-19T18:49:23.657Z,14.65
2022-12-19T18:54:44.341Z,13.73
2022-12-19T19:00:05.614Z,14.20
2022-12-19T19:05:29.061Z,15.43
2022-12-19T19:10:50.927Z,14.07
2022-12-19T19:16:22.377Z,13.60
2022-12-19T19:21:42.722Z,16.02
2022-12-19T19:27:03.666Z,17.30
2022-12-19T19:32:25.791Z,16.17
2022-12-19T19:37:50.069Z,15.90
2022-12-19T19:48:31.631Z,15.48
2022-12-19T19:53:52.072Z,17.60
2022-12-19T19:59:12.543Z,16.38
2022-12-19T20:04:33.197Z,16.70
2022-12-19T20:09:53.897Z,17.50
2022-12-19T20:15:14.691Z,14.98
2022-12-19T20:20:35.461Z,15.00
2022-12-19T20:26:00.881Z,15.45
2022-12-19T20:31:23.695Z,15.55
2022-12-19T20:36:44.346Z,14.98
2022-12-19T20:42:06.528Z,15.50
2022-12-19T20:47:27.157Z,14.63
2022-12-19T20:52:47.611Z,14.35
2022-12-19T20:58:08.246Z,12.88
2022-12-19T21:03:30.231Z,14.10
2022-12-19T21:08:51.440Z,14.10
2022-12-19T21:14:12.472Z,12.85
2022-12-19T21:19:33.444Z,14.48
2022-12-19T21:24:53.961Z,15.05
2022-12-19T21:30:15.544Z,14.98
2022-12-19T21:35:38.138Z,15.45
2022-12-19T21:41:02.575Z,11.68
2022-12-19T21:46:25.312Z,12.88
2022-12-19T21:51:45.645Z,11.98
2022-12-19T21:57:06.270Z,14.95
2022-12-19T22:02:27.068Z,13.68
2022-12-19T22:07:47.930Z,11.55
2022-12-19T22:13:08.645Z,14.95
2022-12-19T22:18:29.252Z,16.63
2022-12-19T22:23:50.546Z,14.82
2022-12-19T22:29:16.468Z,12.70
2022-12-19T22:34:37.499Z,12.80
2022-12-19T22:40:00.220Z,11.05
2022-12-19T22:45:21.013Z,12.05
2022-12-19T22:50:46.932Z,10.77
2022-12-19T22:56:12.917Z,11.30
2022-12-19T23:01:39.499Z,12.32
2022-12-19T23:07:00.285Z,8.95
2022-12-19T23:12:20.820Z,10.82
2022-12-19T23:17:41.519Z,10.80
2022-12-19T23:23:02.045Z,9.45
2022-12-19T23:28:22.363Z,8.10
2022-12-19T23:33:43.083Z,7.97
2022-12-19T23:39:04.214Z,8.60
2022-12-19T23:44:24.603Z,8.55
2022-12-19T23:49:45.118Z,8.88
2022-12-19T23:55:06.512Z,7.25
